createdAt,value
2023-03-10T00:01:24.535Z,99715.00
2023-03-10T00:03:53.068Z,99721.03
2023-03-10T00:06:23.253Z,99715.94
2023-03-10T00:08:51.253Z,99723.31
2023-03-10T00:11:19.143Z,99712.25
2023-03-10T00:13:46.438Z,99716.03
2023-03-10T00:16:19.114Z,99705.72
2023-03-10T00:18:47.985Z,99708.38
2023-03-10T00:21:21.880Z,99701.00
2023-03-10T00:23:49.206Z,99693.00
2023-03-10T00:26:19.620Z,99692.03
2023-03-10T00:28:47.287Z,99692.63
2023-03-10T00:31:20.820Z,99687.34
2023-03-10T00:33:48.934Z,99696.69
2023-03-10T00:36:17.768Z,99695.03
2023-03-10T00:38:46.196Z,99687.72
2023-03-10T00:41:16.256Z,99689.06
2023-03-10T00:43:43.802Z,99684.44
2023-03-10T00:46:11.982Z,99688.28
2023-03-10T00:48:39.736Z,99686.66
2023-03-10T00:51:07.828Z,99683.25
2023-03-10T00:53:40.289Z,99685.88
2023-03-10T00:56:19.952Z,99684.53
2023-03-10T00:58:51.658Z,99670.03
2023-03-10T01:01:22.855Z,99666.78
2023-03-10T01:03:52.058Z,99662.75
2023-03-10T01:06:20.871Z,99653.34
2023-03-10T01:08:48.346Z,99645.22
2023-03-10T01:11:20.667Z,99644.59
2023-03-10T01:13:49.759Z,99638.91
2023-03-10T01:16:17.294Z,99634.19
2023-03-10T01:18:45.242Z,99634.28
2023-03-10T01:21:29.107Z,99625.72
2023-03-10T01:23:56.783Z,99623.22
2023-03-10T01:26:24.073Z,99619.91
2023-03-10T01:28:51.772Z,99610.88
2023-03-10T01:31:19.238Z,99602.25
2023-03-10T01:33:47.202Z,99592.22
2023-03-10T01:36:22.403Z,99601.03
2023-03-10T01:38:50.048Z,99601.31
2023-03-10T01:41:20.862Z,99591.56
2023-03-10T01:43:53.704Z,99588.69
2023-03-10T01:46:27.189Z,99593.22
2023-03-10T01:48:59.595Z,99588.53
2023-03-10T01:51:29.407Z,99586.03
2023-03-10T01:53:56.792Z,99579.00
2023-03-10T01:56:24.392Z,99570.59
2023-03-10T01:59:00.572Z,99557.53
2023-03-10T02:01:29.712Z,99555.03
2023-03-10T02:04:03.263Z,99555.22
2023-03-10T02:06:32.672Z,99552.00
2023-03-10T02:09:02.445Z,99540.22
2023-03-10T02:11:29.885Z,99532.53
2023-03-10T02:13:57.373Z,99528.44
2023-03-10T02:16:24.720Z,99522.09
2023-03-10T02:18:52.086Z,99527.09
2023-03-10T02:21:42.888Z,99524.72
2023-03-10T02:24:15.563Z,99521.94
2023-03-10T02:26:50.336Z,99522.97
2023-03-10T02:29:32.934Z,99518.13
2023-03-10T02:32:01.784Z,99524.69
2023-03-10T02:34:29.529Z,99518.88
2023-03-10T02:36:57.373Z,99510.44
2023-03-10T02:39:25.181Z,99508.13
2023-03-10T02:41:53.020Z,99522.66
2023-03-10T02:44:24.557Z,99517.63
2023-03-10T02:46:52.381Z,99522.38
2023-03-10T02:49:24.898Z,99515.84
2023-03-10T02:51:54.904Z,99499.91
2023-03-10T02:54:22.159Z,99508.25
2023-03-10T02:56:51.534Z,99501.19
2023-03-10T02:59:19.745Z,99496.47
2023-03-10T03:01:50.941Z,99491.44
2023-03-10T03:04:20.027Z,99491.09
2023-03-10T03:06:47.983Z,99483.25
2023-03-10T03:09:15.729Z,99480.47
2023-03-10T03:11:43.094Z,99484.69
2023-03-10T03:14:10.635Z,99476.22
2023-03-10T03:16:39.286Z,99477.97
2023-03-10T03:19:09.680Z,99465.91
2023-03-10T03:21:38.991Z,99468.41
2023-03-10T03:24:06.346Z,99464.91
2023-03-10T03:26:33.725Z,99459.44
2023-03-10T03:29:13.812Z,99449.47
2023-03-10T03:31:41.839Z,99454.41
2023-03-10T03:34:21.682Z,99444.72
2023-03-10T03:36:55.633Z,99445.44
2023-03-10T03:39:28.763Z,99440.56
2023-03-10T03:41:59.856Z,99448.66
2023-03-10T03:44:32.016Z,99436.41
2023-03-10T03:47:00.475Z,99434.53
2023-03-10T03:49:28.722Z,99435.41
2023-03-10T03:51:56.034Z,99437.19
2023-03-10T03:54:24.330Z,99430.97
2023-03-10T03:56:52.118Z,99434.63
2023-03-10T03:59:19.513Z,99426.91
2023-03-10T04:01:50.000Z,99424.91
2023-03-10T04:04:17.901Z,99424.00
2023-03-10T04:06:45.288Z,99426.25
2023-03-10T04:09:13.760Z,99420.53
2023-03-10T04:11:41.178Z,99416.53
2023-03-10T04:14:08.714Z,99412.66
2023-03-10T04:16:36.130Z,99419.19
2023-03-10T04:19:07.686Z,99412.31
2023-03-10T04:21:40.092Z,99411.56
2023-03-10T04:24:08.048Z,99405.34
2023-03-10T04:26:35.520Z,99407.19
2023-03-10T04:29:03.886Z,99409.22
2023-03-10T04:31:36.315Z,99399.16
2023-03-10T04:34:05.136Z,99400.59
2023-03-10T04:36:32.970Z,99390.06
2023-03-10T04:39:05.286Z,99388.84
2023-03-10T04:41:33.132Z,99382.81
2023-03-10T04:44:00.653Z,99378.47
2023-03-10T04:46:31.718Z,99374.66
2023-03-10T04:48:59.358Z,99367.13
2023-03-10T04:51:26.648Z,99361.22
2023-03-10T04:54:00.391Z,99351.84
2023-03-10T04:56:30.705Z,99349.16
2023-03-10T04:58:58.231Z,99354.63
2023-03-10T05:01:26.373Z,99345.16
2023-03-10T05:04:00.837Z,99333.50
2023-03-10T05:06:28.834Z,99324.16
2023-03-10T05:09:12.835Z,99309.88
2023-03-10T05:11:40.158Z,99312.06
2023-03-10T05:14:07.736Z,99300.78
2023-03-10T05:16:35.130Z,99295.75
2023-03-10T05:19:02.492Z,99289.47
2023-03-10T05:21:32.060Z,99274.78
2023-03-10T05:23:59.944Z,99266.94
2023-03-10T05:26:28.006Z,99272.19
2023-03-10T05:28:55.399Z,99285.75
2023-03-10T05:31:30.439Z,99292.56
2023-03-10T05:34:04.952Z,99283.41
2023-03-10T05:36:32.452Z,99279.75
2023-03-10T05:39:00.526Z,99273.91
2023-03-10T05:41:29.147Z,99276.94
2023-03-10T05:44:01.223Z,99277.34
2023-03-10T05:46:29.461Z,99279.28
2023-03-10T05:48:59.062Z,99278.25
2023-03-10T05:51:26.630Z,99285.84
2023-03-10T05:53:54.694Z,99276.59
2023-03-10T05:56:26.377Z,99270.75
2023-03-10T05:58:58.183Z,99270.25
2023-03-10T06:01:30.522Z,99269.97
2023-03-10T06:03:57.926Z,99269.22
2023-03-10T06:06:25.336Z,99266.94
2023-03-10T06:08:52.786Z,99260.72
2023-03-10T06:11:20.100Z,99261.13
2023-03-10T06:13:48.337Z,99253.41
2023-03-10T06:16:15.898Z,99260.56
2023-03-10T06:18:43.648Z,99250.19
2023-03-10T06:21:13.695Z,99252.22
2023-03-10T06:23:41.543Z,99251.97
2023-03-10T06:26:15.033Z,99260.03
2023-03-10T06:28:45.123Z,99254.63
2023-03-10T06:31:16.744Z,99249.56
2023-03-10T06:33:44.807Z,99254.25
2023-03-10T06:36:13.283Z,99257.34
2023-03-10T06:38:41.440Z,99255.81
2023-03-10T06:41:09.380Z,99262.81
2023-03-10T06:43:36.923Z,99259.72
2023-03-10T06:46:06.701Z,99257.81
2023-03-10T06:48:37.856Z,99257.09
2023-03-10T06:51:07.426Z,99252.06
2023-03-10T06:53:35.007Z,99249.31
2023-03-10T06:56:06.600Z,99244.28
2023-03-10T06:58:35.934Z,99248.22
2023-03-10T07:01:05.484Z,99246.72
2023-03-10T07:03:33.201Z,99247.94
2023-03-10T07:06:00.863Z,99242.56
2023-03-10T07:08:29.178Z,99241.47
2023-03-10T07:10:57.109Z,99235.31
2023-03-10T07:13:24.660Z,99239.97
2023-03-10T07:15:52.108Z,99241.78
2023-03-10T07:18:19.492Z,99244.53
2023-03-10T07:20:47.893Z,99236.34
2023-03-10T07:23:15.617Z,99221.66
2023-03-10T07:25:42.964Z,99219.78
2023-03-10T07:28:10.501Z,99211.28
2023-03-10T07:30:38.704Z,99201.63
2023-03-10T07:33:06.129Z,99204.81
2023-03-10T07:35:36.629Z,99205.91
2023-03-10T07:38:05.030Z,99207.84
2023-03-10T07:40:32.304Z,99199.00
2023-03-10T07:42:59.705Z,99194.00
2023-03-10T07:45:30.873Z,99196.41
2023-03-10T07:47:58.194Z,99188.66
2023-03-10T07:50:26.598Z,99178.69
2023-03-10T07:52:55.431Z,99173.50
2023-03-10T07:55:23.415Z,99166.00
2023-03-10T07:57:50.790Z,99160.81
2023-03-10T08:00:18.706Z,99165.69
2023-03-10T08:02:46.052Z,99160.97
2023-03-10T08:05:14.905Z,99165.69
2023-03-10T08:07:43.495Z,99160.31
2023-03-10T08:10:11.694Z,99163.44
2023-03-10T08:12:39.331Z,99160.66
2023-03-10T08:15:07.371Z,99174.56
2023-03-10T08:17:37.284Z,99166.84
2023-03-10T08:20:06.618Z,99161.28
2023-03-10T08:22:33.994Z,99158.91
2023-03-10T08:25:02.129Z,99151.22
2023-03-10T08:27:32.621Z,99139.56
2023-03-10T08:29:59.971Z,99135.09
2023-03-10T08:32:27.367Z,99130.16
2023-03-10T08:34:54.813Z,99135.09
2023-03-10T08:37:22.247Z,99130.16
2023-03-10T08:39:52.130Z,99128.91
2023-03-10T08:42:19.801Z,99130.47
2023-03-10T08:44:47.144Z,99117.56
2023-03-10T08:47:14.453Z,99110.19
2023-03-10T08:49:44.454Z,99118.63
2023-03-10T08:52:13.268Z,99116.84
2023-03-10T08:54:40.604Z,99119.94
2023-03-10T08:57:07.979Z,99116.34
2023-03-10T08:59:35.275Z,99115.81
2023-03-10T09:02:02.635Z,99125.91
2023-03-10T09:04:29.992Z,99124.13
2023-03-10T09:06:57.291Z,99123.63
2023-03-10T09:09:24.616Z,99125.22
2023-03-10T09:11:52.062Z,99121.81
2023-03-10T09:14:20.198Z,99120.19
2023-03-10T09:16:47.676Z,99118.34
2023-03-10T09:19:15.032Z,99112.44
2023-03-10T09:21:42.776Z,99107.75
2023-03-10T09:24:10.592Z,99095.94
2023-03-10T09:26:37.929Z,99089.88
2023-03-10T09:29:05.409Z,99082.09
2023-03-10T09:31:35.596Z,99077.47
2023-03-10T09:34:03.818Z,99082.25
2023-03-10T09:36:31.696Z,99084.03
2023-03-10T09:38:59.754Z,99080.88
2023-03-10T09:41:42.042Z,99087.97
2023-03-10T09:44:44.615Z,99085.75
2023-03-10T09:47:39.586Z,99074.88
2023-03-10T09:50:20.161Z,99072.41
2023-03-10T09:53:02.199Z,99071.28
2023-03-10T09:55:35.460Z,99062.09
2023-03-10T09:58:04.028Z,99062.84
2023-03-10T10:00:38.455Z,99073.06
2023-03-10T10:03:21.529Z,99070.47
2023-03-10T10:05:52.151Z,99061.16
2023-03-10T10:08:22.404Z,99059.38
2023-03-10T10:10:53.623Z,99063.94
2023-03-10T10:13:25.059Z,99062.19
2023-03-10T10:16:31.900Z,99061.81
2023-03-10T10:19:13.985Z,99068.22
2023-03-10T10:22:08.462Z,99061.81
2023-03-10T10:24:36.163Z,99065.56
2023-03-10T10:27:03.592Z,99053.31
2023-03-10T10:29:36.624Z,99053.75
2023-03-10T10:32:10.450Z,99047.47
2023-03-10T10:34:40.954Z,99043.25
2023-03-10T10:37:23.186Z,99034.88
2023-03-10T10:39:51.618Z,99036.94
2023-03-10T10:42:28.587Z,99041.41
2023-03-10T10:45:03.087Z,99036.41
2023-03-10T10:47:37.654Z,99027.69
2023-03-10T10:50:22.879Z,99023.03
2023-03-10T10:52:53.762Z,99022.50
2023-03-10T10:55:26.718Z,99018.72
2023-03-10T10:58:01.706Z,99018.19
2023-03-10T11:00:33.359Z,99010.94
2023-03-10T11:03:01.196Z,99015.28
2023-03-10T11:05:31.657Z,99015.44
2023-03-10T11:08:27.065Z,99018.09
2023-03-10T11:11:12.640Z,99002.59
2023-03-10T11:14:16.741Z,99011.63
2023-03-10T11:17:05.056Z,99014.38
2023-03-10T11:19:37.236Z,99006.97
2023-03-10T11:22:33.252Z,99005.16
2023-03-10T11:25:11.571Z,99009.91
2023-03-10T11:27:48.763Z,98994.91
2023-03-10T11:30:26.032Z,98999.16
2023-03-10T11:33:10.669Z,98996.16
2023-03-10T11:35:45.868Z,98995.22
2023-03-10T11:38:32.075Z,98991.59
2023-03-10T11:41:22.938Z,98979.50
2023-03-10T11:43:57.104Z,98994.53
2023-03-10T11:46:33.392Z,98986.88
2023-03-10T11:49:17.600Z,98985.84
2023-03-10T11:51:50.295Z,98985.69
2023-03-10T11:54:38.931Z,98976.84
2023-03-10T11:57:21.032Z,98971.69
2023-03-10T11:59:55.347Z,98966.31
2023-03-10T12:02:47.566Z,98964.63
2023-03-10T12:05:14.800Z,98963.25
2023-03-10T12:07:47.056Z,98957.06
2023-03-10T12:10:19.359Z,98954.59
2023-03-10T12:12:49.329Z,98949.69
2023-03-10T12:15:24.396Z,98950.50
2023-03-10T12:17:54.321Z,98938.63
2023-03-10T12:20:21.570Z,98934.19
2023-03-10T12:22:50.362Z,98935.38
2023-03-10T12:25:35.549Z,98940.44
2023-03-10T12:28:27.917Z,98929.19
2023-03-10T12:31:24.188Z,98931.19
2023-03-10T12:33:52.800Z,98924.00
2023-03-10T12:36:35.594Z,98915.97
2023-03-10T12:39:24.424Z,98916.06
2023-03-10T12:41:53.231Z,98918.75
2023-03-10T12:44:23.273Z,98908.81
2023-03-10T12:46:57.820Z,98901.09
2023-03-10T12:49:40.742Z,98901.53
2023-03-10T12:52:30.511Z,98916.25
2023-03-10T12:55:15.796Z,98905.75
2023-03-10T12:58:13.911Z,98910.09
2023-03-10T13:01:10.222Z,98894.44
2023-03-10T13:03:47.461Z,98897.16
2023-03-10T13:06:14.747Z,98896.00
2023-03-10T13:08:42.083Z,98894.00
2023-03-10T13:11:18.416Z,98890.66
2023-03-10T13:13:54.130Z,98885.53
2023-03-10T13:16:21.557Z,98897.31
2023-03-10T13:18:51.221Z,98912.19
2023-03-10T13:21:39.264Z,98912.19
2023-03-10T13:24:40.508Z,98911.25
2023-03-10T13:27:14.165Z,98902.09
2023-03-10T13:30:27.177Z,98895.78
2023-03-10T13:32:59.737Z,98900.56
2023-03-10T13:35:34.589Z,98898.81
2023-03-10T13:38:13.866Z,98886.44
2023-03-10T13:40:44.816Z,98903.44
2023-03-10T13:43:25.518Z,98888.66
2023-03-10T13:46:00.645Z,98891.34
2023-03-10T13:48:31.128Z,98874.59
2023-03-10T13:51:10.050Z,98883.34
2023-03-10T13:53:37.385Z,98887.66
2023-03-10T13:56:21.771Z,98886.19
2023-03-10T13:58:51.761Z,98893.13
2023-03-10T14:01:23.692Z,98886.94
2023-03-10T14:03:55.419Z,98888.47
2023-03-10T14:06:22.984Z,98879.84
2023-03-10T14:08:51.263Z,98889.63
2023-03-10T14:11:32.411Z,98890.75
2023-03-10T14:14:00.893Z,98882.56
2023-03-10T14:16:51.779Z,98892.00
2023-03-10T14:19:43.731Z,98887.72
2023-03-10T14:22:27.741Z,98902.56
2023-03-10T14:24:55.837Z,98889.06
2023-03-10T14:27:24.637Z,98881.84
2023-03-10T14:29:54.732Z,98875.97
2023-03-10T14:32:23.128Z,98891.19
2023-03-10T14:34:53.365Z,98874.16
2023-03-10T14:37:20.613Z,98873.03
2023-03-10T14:39:47.981Z,98875.88
2023-03-10T14:42:26.871Z,98888.97
2023-03-10T14:44:54.381Z,98899.41
2023-03-10T14:47:21.891Z,98897.59
2023-03-10T14:49:49.535Z,98890.97
2023-03-10T14:52:17.849Z,98889.41
2023-03-10T14:54:48.008Z,98890.72
2023-03-10T14:57:19.768Z,98892.59
2023-03-10T14:59:47.246Z,98892.38
2023-03-10T15:02:22.323Z,98891.09
2023-03-10T15:04:50.031Z,98889.84
2023-03-10T15:07:20.642Z,98879.22
2023-03-10T15:09:49.512Z,98876.72
2023-03-10T15:12:18.353Z,98892.56
2023-03-10T15:14:52.323Z,98887.00
2023-03-10T15:17:20.363Z,98892.81
2023-03-10T15:19:47.696Z,98894.63
2023-03-10T15:22:14.978Z,98892.66
2023-03-10T15:24:42.296Z,98897.81
2023-03-10T15:27:12.149Z,98886.22
2023-03-10T15:29:39.576Z,98876.88
2023-03-10T15:32:07.195Z,98881.13
2023-03-10T15:34:34.644Z,98893.63
2023-03-10T15:37:02.100Z,98895.34
2023-03-10T15:39:32.246Z,98886.13
2023-03-10T15:42:00.770Z,98886.72
2023-03-10T15:44:28.102Z,98896.63
2023-03-10T15:46:55.841Z,98905.59
2023-03-10T15:49:23.365Z,98904.47
2023-03-10T15:51:50.629Z,98889.59
2023-03-10T15:54:20.865Z,98894.50
2023-03-10T15:56:48.133Z,98894.78
2023-03-10T15:59:15.890Z,98900.50
2023-03-10T16:01:43.193Z,98906.91
2023-03-10T16:04:10.524Z,98891.41
2023-03-10T16:06:37.778Z,98889.97
2023-03-10T16:09:09.096Z,98906.38
2023-03-10T16:11:36.487Z,98915.50
2023-03-10T16:14:04.244Z,98925.69
2023-03-10T16:16:31.753Z,98924.97
2023-03-10T16:18:59.188Z,98927.81
2023-03-10T16:21:27.776Z,98921.00
2023-03-10T16:23:55.174Z,98917.56
2023-03-10T16:26:24.204Z,98913.88
2023-03-10T16:28:53.697Z,98923.63
2023-03-10T16:31:26.986Z,98915.88
2023-03-10T16:33:55.451Z,98899.53
2023-03-10T16:36:28.204Z,98889.00
2023-03-10T16:38:55.704Z,98879.00
2023-03-10T16:41:23.933Z,98880.28
2023-03-10T16:43:51.360Z,98871.41
2023-03-10T16:46:30.031Z,98865.78
2023-03-10T16:49:00.239Z,98855.00
2023-03-10T16:51:39.530Z,98852.72
2023-03-10T16:54:11.601Z,98851.22
2023-03-10T16:56:40.276Z,98865.88
2023-03-10T16:59:07.840Z,98863.50
2023-03-10T17:01:35.278Z,98854.75
2023-03-10T17:04:02.786Z,98859.94
2023-03-10T17:06:32.733Z,98857.63
2023-03-10T17:09:00.873Z,98847.41
2023-03-10T17:11:31.183Z,98863.75
2023-03-10T17:14:05.043Z,98881.81
2023-03-10T17:16:33.880Z,98864.34
2023-03-10T17:19:05.403Z,98864.88
2023-03-10T17:21:35.958Z,98869.19
2023-03-10T17:24:04.051Z,98874.69
2023-03-10T17:26:31.864Z,98866.94
2023-03-10T17:28:59.450Z,98870.44
2023-03-10T17:31:28.922Z,98876.03
2023-03-10T17:33:59.384Z,98871.34
2023-03-10T17:36:28.497Z,98885.81
2023-03-10T17:38:57.227Z,98883.59
2023-03-10T17:41:25.108Z,98890.25
2023-03-10T17:43:54.347Z,98900.94
2023-03-10T17:46:24.894Z,98900.66
2023-03-10T17:48:53.184Z,98873.81
2023-03-10T17:51:23.548Z,98880.97
2023-03-10T17:53:51.699Z,98903.81
2023-03-10T17:56:19.680Z,98907.44
2023-03-10T17:58:47.137Z,98914.88
2023-03-10T18:01:20.037Z,98913.22
2023-03-10T18:03:48.444Z,98906.16
2023-03-10T18:06:18.967Z,98909.81
2023-03-10T18:08:46.510Z,98911.50
2023-03-10T18:11:14.396Z,98896.97
2023-03-10T18:13:42.579Z,98902.09
2023-03-10T18:16:16.977Z,98910.78
2023-03-10T18:18:45.270Z,98912.78
2023-03-10T18:21:13.878Z,98909.91
2023-03-10T18:23:42.230Z,98906.53
2023-03-10T18:26:12.097Z,98894.78
2023-03-10T18:28:42.566Z,98886.50
2023-03-10T18:31:31.510Z,98884.88
2023-03-10T18:33:59.233Z,98886.56
2023-03-10T18:36:27.176Z,98889.94
2023-03-10T18:38:55.084Z,98907.59
2023-03-10T18:41:25.148Z,98908.03
2023-03-10T18:43:53.141Z,98911.16
2023-03-10T18:46:20.955Z,98915.91
2023-03-10T18:48:55.249Z,98911.19
2023-03-10T18:51:24.584Z,98909.28
2023-03-10T18:53:52.946Z,98887.66
2023-03-10T18:56:20.677Z,98903.44
2023-03-10T18:58:48.182Z,98893.19
2023-03-10T19:01:15.709Z,98897.81
2023-03-10T19:03:43.188Z,98891.56
2023-03-10T19:06:10.669Z,98912.38
2023-03-10T19:08:38.979Z,98926.91
2023-03-10T19:11:07.019Z,98926.91
2023-03-10T19:13:40.456Z,98919.91
2023-03-10T19:16:09.113Z,98925.44
2023-03-10T19:18:38.413Z,98939.47
2023-03-10T19:21:06.200Z,98943.34
2023-03-10T19:23:34.942Z,98942.59
2023-03-10T19:26:03.640Z,98936.72
2023-03-10T19:28:31.454Z,98946.56
2023-03-10T19:31:01.887Z,98943.03
2023-03-10T19:33:29.319Z,98946.91
2023-03-10T19:36:04.909Z,98948.09
2023-03-10T19:38:35.250Z,98950.09
2023-03-10T19:41:04.199Z,98948.13
2023-03-10T19:43:32.668Z,98945.06
2023-03-10T19:46:06.480Z,98935.66
2023-03-10T19:48:37.264Z,98932.50
2023-03-10T19:51:07.930Z,98934.06
2023-03-10T19:53:35.757Z,98927.06
2023-03-10T19:56:04.884Z,98929.78
2023-03-10T19:58:32.745Z,98938.06
2023-03-10T20:01:00.516Z,98940.06
2023-03-10T20:03:29.992Z,98949.41
2023-03-10T20:05:57.457Z,98952.13
2023-03-10T20:08:24.894Z,98953.72
2023-03-10T20:10:52.298Z,98961.13
2023-03-10T20:13:19.845Z,98955.28
2023-03-10T20:15:47.342Z,98971.34
2023-03-10T20:18:18.339Z,98976.84
2023-03-10T20:20:45.708Z,98989.75
2023-03-10T20:23:13.521Z,98985.84
2023-03-10T20:26:14.169Z,98995.19
2023-03-10T20:28:42.568Z,99009.66
2023-03-10T20:31:09.975Z,99001.06
2023-03-10T20:33:37.269Z,98996.38
2023-03-10T20:36:05.547Z,98997.56
2023-03-10T20:38:32.832Z,98990.09
2023-03-10T20:41:00.127Z,98986.63
2023-03-10T20:43:27.520Z,98997.97
2023-03-10T20:45:55.169Z,99000.31
2023-03-10T20:48:22.450Z,99002.28
2023-03-10T20:50:56.889Z,98994.06
2023-03-10T20:53:27.275Z,98993.28
2023-03-10T20:55:54.625Z,98987.44
2023-03-10T20:58:21.905Z,98974.91
2023-03-10T21:00:49.251Z,98974.53
2023-03-10T21:03:16.681Z,98983.13
2023-03-10T21:05:44.606Z,98989.78
2023-03-10T21:08:11.836Z,98994.47
2023-03-10T21:10:39.795Z,98987.06
2023-03-10T21:13:07.329Z,98989.00
2023-03-10T21:15:34.780Z,98990.97
2023-03-10T21:18:02.242Z,99001.16
2023-03-10T21:20:29.598Z,99019.13
2023-03-10T21:22:56.993Z,99023.81
2023-03-10T21:25:26.597Z,99001.13
2023-03-10T21:27:58.735Z,99003.47
2023-03-10T21:30:28.717Z,99019.88
2023-03-10T21:32:57.797Z,99019.50
2023-03-10T21:35:26.422Z,99007.72
2023-03-10T21:37:55.500Z,98995.25
2023-03-10T21:40:24.348Z,98993.25
2023-03-10T21:42:52.263Z,98997.53
2023-03-10T21:45:22.710Z,99003.38
2023-03-10T21:47:50.597Z,99008.44
2023-03-10T21:50:18.909Z,99017.84
2023-03-10T21:52:47.400Z,99022.09
2023-03-10T21:55:21.534Z,99022.50
2023-03-10T21:57:49.022Z,99011.16
2023-03-10T22:00:19.201Z,99004.91
2023-03-10T22:02:47.318Z,99007.25
2023-03-10T22:05:16.781Z,99006.50
2023-03-10T22:07:44.892Z,99003.72
2023-03-10T22:10:14.087Z,99010.34
2023-03-10T22:12:44.316Z,99018.09
2023-03-10T22:15:17.474Z,99019.25
2023-03-10T22:17:45.308Z,99039.19
2023-03-10T22:20:18.561Z,99013.03
2023-03-10T22:22:46.709Z,99006.75
2023-03-10T22:25:34.648Z,98997.75
2023-03-10T22:28:02.393Z,98999.75
2023-03-10T22:30:30.086Z,99007.94
2023-03-10T22:32:57.753Z,99007.06
2023-03-10T22:35:25.108Z,99013.69
2023-03-10T22:37:53.388Z,99008.25
2023-03-10T22:40:23.449Z,99006.69
2023-03-10T22:42:51.594Z,98992.22
2023-03-10T22:45:29.095Z,98992.53
2023-03-10T22:48:00.098Z,98995.66
2023-03-10T22:50:30.202Z,98992.94
2023-03-10T22:52:59.297Z,98998.00
2023-03-10T22:55:28.989Z,98987.50
2023-03-10T22:57:56.561Z,98979.31
2023-03-10T23:00:24.253Z,98989.41
2023-03-10T23:02:53.805Z,98996.78
2023-03-10T23:05:21.333Z,98994.50
2023-03-10T23:07:48.954Z,98998.75
2023-03-10T23:10:25.324Z,98999.91
2023-03-10T23:12:55.113Z,99002.25
2023-03-10T23:15:26.025Z,99011.56
2023-03-10T23:17:54.981Z,98999.06
2023-03-10T23:20:30.687Z,98999.03
2023-03-10T23:23:02.957Z,99004.56
2023-03-10T23:25:34.032Z,98995.19
2023-03-10T23:28:02.174Z,98998.69
2023-03-10T23:30:32.777Z,98999.50
2023-03-10T23:33:00.274Z,98996.31
2023-03-10T23:35:33.122Z,99002.97
2023-03-10T23:38:01.962Z,99000.56
2023-03-10T23:40:31.703Z,99009.56
2023-03-10T23:43:00.604Z,99004.56
2023-03-10T23:45:29.625Z,98998.63
2023-03-10T23:48:01.365Z,98999.09
2023-03-10T23:50:31.677Z,99006.47
2023-03-10T23:52:59.304Z,99007.22
2023-03-10T23:55:32.500Z,98990.13
2023-03-10T23:58:00.197Z,99015.91
